sensor_id;sensor_type;location;lat;lon;timestamp;P1;durP1;ratioP1;P2;durP2;ratioP2
18501;SDS011;68437;52.236;5.710;2024-02-21T00:00:03;28.73;;;10.50;;
18501;SDS011;68437;52.236;5.710;2024-02-21T00:02:31;28.65;;;10.20;;
18501;SDS011;68437;52.236;5.710;2024-02-21T00:04:58;20.25;;;10.38;;
18501;SDS011;68437;52.236;5.710;2024-02-21T00:07:25;24.13;;;10.20;;
18501;SDS011;68437;52.236;5.710;2024-02-21T00:09:53;31.60;;;10.63;;
18501;SDS011;68437;52.236;5.710;2024-02-21T00:12:19;23.42;;;10.13;;
18501;SDS011;68437;52.236;5.710;2024-02-21T00:14:46;27.30;;;11.10;;
18501;SDS011;68437;52.236;5.710;2024-02-21T00:17:13;25.83;;;9.95;;
18501;SDS011;68437;52.236;5.710;2024-02-21T00:19:40;32.72;;;10.05;;
18501;SDS011;68437;52.236;5.710;2024-02-21T00:22:07;29.45;;;10.75;;
18501;SDS011;68437;52.236;5.710;2024-02-21T00:24:34;27.17;;;10.48;;
18501;SDS011;68437;52.236;5.710;2024-02-21T00:27:02;31.33;;;10.60;;
18501;SDS011;68437;52.236;5.710;2024-02-21T00:29:29;30.25;;;10.32;;
18501;SDS011;68437;52.236;5.710;2024-02-21T00:31:56;31.02;;;10.50;;
18501;SDS011;68437;52.236;5.710;2024-02-21T00:34:23;30.42;;;9.77;;
18501;SDS011;68437;52.236;5.710;2024-02-21T00:36:49;27.83;;;9.93;;
18501;SDS011;68437;52.236;5.710;2024-02-21T00:39:16;28.52;;;10.20;;
18501;SDS011;68437;52.236;5.710;2024-02-21T00:41:43;32.05;;;10.43;;
18501;SDS011;68437;52.236;5.710;2024-02-21T00:44:11;31.98;;;10.05;;
18501;SDS011;68437;52.236;5.710;2024-02-21T00:46:38;26.20;;;9.13;;
18501;SDS011;68437;52.236;5.710;2024-02-21T00:49:04;26.83;;;9.45;;
18501;SDS011;68437;52.236;5.710;2024-02-21T00:51:31;25.75;;;9.90;;
18501;SDS011;68437;52.236;5.710;2024-02-21T00:53:58;31.48;;;9.32;;
18501;SDS011;68437;52.236;5.710;2024-02-21T00:56:26;28.73;;;9.95;;
18501;SDS011;68437;52.236;5.710;2024-02-21T00:58:53;31.75;;;9.43;;
18501;SDS011;68437;52.236;5.710;2024-02-21T01:01:24;29.60;;;9.13;;
18501;SDS011;68437;52.236;5.710;2024-02-21T01:03:51;33.90;;;9.80;;
18501;SDS011;68437;52.236;5.710;2024-02-21T01:06:19;29.95;;;9.55;;
18501;SDS011;68437;52.236;5.710;2024-02-21T01:08:46;28.15;;;9.43;;
18501;SDS011;68437;52.236;5.710;2024-02-21T01:11:13;28.80;;;8.73;;
18501;SDS011;68437;52.236;5.710;2024-02-21T01:13:40;27.77;;;9.30;;
18501;SDS011;68437;52.236;5.710;2024-02-21T01:16:07;29.00;;;9.98;;
18501;SDS011;68437;52.236;5.710;2024-02-21T01:18:36;31.02;;;9.60;;
18501;SDS011;68437;52.236;5.710;2024-02-21T01:21:04;29.63;;;9.32;;
18501;SDS011;68437;52.236;5.710;2024-02-21T01:23:32;31.33;;;9.13;;
18501;SDS011;68437;52.236;5.710;2024-02-21T01:25:58;28.90;;;9.50;;
18501;SDS011;68437;52.236;5.710;2024-02-21T01:28:25;28.70;;;9.10;;
18501;SDS011;68437;52.236;5.710;2024-02-21T01:30:52;28.02;;;8.40;;
18501;SDS011;68437;52.236;5.710;2024-02-21T01:33:19;26.30;;;9.10;;
18501;SDS011;68437;52.236;5.710;2024-02-21T01:35:49;28.52;;;9.27;;
18501;SDS011;68437;52.236;5.710;2024-02-21T01:38:16;31.25;;;9.50;;
18501;SDS011;68437;52.236;5.710;2024-02-21T01:40:43;25.27;;;8.98;;
18501;SDS011;68437;52.236;5.710;2024-02-21T01:43:16;27.00;;;9.32;;
18501;SDS011;68437;52.236;5.710;2024-02-21T01:45:44;26.15;;;9.50;;
18501;SDS011;68437;52.236;5.710;2024-02-21T01:48:15;23.92;;;8.93;;
18501;SDS011;68437;52.236;5.710;2024-02-21T01:50:43;28.45;;;9.07;;
18501;SDS011;68437;52.236;5.710;2024-02-21T01:53:12;35.10;;;10.63;;
18501;SDS011;68437;52.236;5.710;2024-02-21T01:55:43;30.67;;;9.80;;
18501;SDS011;68437;52.236;5.710;2024-02-21T01:58:11;34.15;;;10.50;;
18501;SDS011;68437;52.236;5.710;2024-02-21T02:00:38;28.17;;;10.38;;
18501;SDS011;68437;52.236;5.710;2024-02-21T02:03:07;32.72;;;11.00;;
18501;SDS011;68437;52.236;5.710;2024-02-21T02:05:41;38.20;;;11.10;;
18501;SDS011;68437;52.236;5.710;2024-02-21T02:08:09;32.42;;;11.43;;
18501;SDS011;68437;52.236;5.710;2024-02-21T02:10:38;26.00;;;10.55;;
18501;SDS011;68437;52.236;5.710;2024-02-21T02:13:06;36.13;;;11.40;;
18501;SDS011;68437;52.236;5.710;2024-02-21T02:15:39;28.63;;;11.90;;
18501;SDS011;68437;52.236;5.710;2024-02-21T02:18:06;31.20;;;11.55;;
18501;SDS011;68437;52.236;5.710;2024-02-21T02:20:33;33.45;;;12.75;;
18501;SDS011;68437;52.236;5.710;2024-02-21T02:23:01;37.90;;;12.40;;
18501;SDS011;68437;52.236;5.710;2024-02-21T02:25:35;35.67;;;11.95;;
18501;SDS011;68437;52.236;5.710;2024-02-21T02:28:03;44.65;;;12.73;;
18501;SDS011;68437;52.236;5.710;2024-02-21T02:30:31;40.05;;;12.98;;
18501;SDS011;68437;52.236;5.710;2024-02-21T02:32:59;29.90;;;12.05;;
18501;SDS011;68437;52.236;5.710;2024-02-21T02:35:25;30.33;;;12.40;;
18501;SDS011;68437;52.236;5.710;2024-02-21T02:37:52;41.88;;;13.73;;
18501;SDS011;68437;52.236;5.710;2024-02-21T02:40:21;36.97;;;12.75;;
18501;SDS011;68437;52.236;5.710;2024-02-21T02:42:50;37.78;;;12.93;;
18501;SDS011;68437;52.236;5.710;2024-02-21T02:45:20;33.50;;;12.43;;
18501;SDS011;68437;52.236;5.710;2024-02-21T02:47:48;28.70;;;12.25;;
18501;SDS011;68437;52.236;5.710;2024-02-21T02:50:15;30.45;;;12.35;;
18501;SDS011;68437;52.236;5.710;2024-02-21T02:52:42;36.15;;;12.65;;
18501;SDS011;68437;52.236;5.710;2024-02-21T02:55:08;33.08;;;12.63;;
18501;SDS011;68437;52.236;5.710;2024-02-21T02:57:35;35.35;;;12.98;;
18501;SDS011;68437;52.236;5.710;2024-02-21T03:00:04;29.83;;;11.95;;
18501;SDS011;68437;52.236;5.710;2024-02-21T03:02:32;34.80;;;13.10;;
18501;SDS011;68437;52.236;5.710;2024-02-21T03:04:59;34.97;;;12.15;;
18501;SDS011;68437;52.236;5.710;2024-02-21T03:07:26;34.83;;;12.65;;
18501;SDS011;68437;52.236;5.710;2024-02-21T03:09:53;38.22;;;12.10;;
18501;SDS011;68437;52.236;5.710;2024-02-21T03:12:20;37.58;;;13.02;;
18501;SDS011;68437;52.236;5.710;2024-02-21T03:14:52;39.67;;;13.15;;
18501;SDS011;68437;52.236;5.710;2024-02-21T03:17:20;41.25;;;12.63;;
18501;SDS011;68437;52.236;5.710;2024-02-21T03:19:47;33.08;;;12.80;;
18501;SDS011;68437;52.236;5.710;2024-02-21T03:22:15;30.40;;;12.88;;
18501;SDS011;68437;52.236;5.710;2024-02-21T03:24:42;37.50;;;13.15;;
18501;SDS011;68437;52.236;5.710;2024-02-21T03:27:08;42.13;;;13.20;;
18501;SDS011;68437;52.236;5.710;2024-02-21T03:29:35;39.50;;;13.07;;
18501;SDS011;68437;52.236;5.710;2024-02-21T03:32:02;35.35;;;13.10;;
18501;SDS011;68437;52.236;5.710;2024-02-21T03:34:31;41.90;;;14.23;;
18501;SDS011;68437;52.236;5.710;2024-02-21T03:36:57;35.17;;;13.20;;
18501;SDS011;68437;52.236;5.710;2024-02-21T03:39:25;31.67;;;13.27;;
18501;SDS011;68437;52.236;5.710;2024-02-21T03:41:52;26.38;;;12.07;;
18501;SDS011;68437;52.236;5.710;2024-02-21T03:44:18;41.25;;;12.85;;
18501;SDS011;68437;52.236;5.710;2024-02-21T03:46:45;32.72;;;12.88;;
18501;SDS011;68437;52.236;5.710;2024-02-21T03:49:12;37.30;;;12.07;;
18501;SDS011;68437;52.236;5.710;2024-02-21T03:51:40;31.73;;;12.50;;
18501;SDS011;68437;52.236;5.710;2024-02-21T03:54:07;28.70;;;12.15;;
18501;SDS011;68437;52.236;5.710;2024-02-21T03:56:36;36.72;;;11.60;;
18501;SDS011;68437;52.236;5.710;2024-02-21T03:59:04;30.17;;;11.45;;
18501;SDS011;68437;52.236;5.710;2024-02-21T04:01:31;32.97;;;12.25;;
18501;SDS011;68437;52.236;5.710;2024-02-21T04:03:58;33.15;;;11.55;;
18501;SDS011;68437;52.236;5.710;2024-02-21T04:06:25;36.63;;;12.30;;
18501;SDS011;68437;52.236;5.710;2024-02-21T04:08:53;37.95;;;12.60;;
18501;SDS011;68437;52.236;5.710;2024-02-21T04:11:20;39.75;;;13.02;;
18501;SDS011;68437;52.236;5.710;2024-02-21T04:13:47;33.08;;;12.80;;
18501;SDS011;68437;52.236;5.710;2024-02-21T04:16:15;38.92;;;13.18;;
18501;SDS011;68437;52.236;5.710;2024-02-21T04:18:42;43.55;;;13.88;;
18501;SDS011;68437;52.236;5.710;2024-02-21T04:21:09;36.50;;;13.75;;
18501;SDS011;68437;52.236;5.710;2024-02-21T04:23:38;33.20;;;13.02;;
18501;SDS011;68437;52.236;5.710;2024-02-21T04:26:08;40.80;;;13.15;;
18501;SDS011;68437;52.236;5.710;2024-02-21T04:28:35;32.67;;;13.13;;
18501;SDS011;68437;52.236;5.710;2024-02-21T04:31:02;38.63;;;13.95;;
18501;SDS011;68437;52.236;5.710;2024-02-21T04:33:29;35.28;;;13.02;;
18501;SDS011;68437;52.236;5.710;2024-02-21T04:35:56;32.50;;;12.68;;
18501;SDS011;68437;52.236;5.710;2024-02-21T04:38:23;36.78;;;12.88;;
18501;SDS011;68437;52.236;5.710;2024-02-21T04:40:50;36.75;;;12.88;;
18501;SDS011;68437;52.236;5.710;2024-02-21T04:43:18;33.30;;;12.52;;
18501;SDS011;68437;52.236;5.710;2024-02-21T04:45:45;28.08;;;12.18;;
18501;SDS011;68437;52.236;5.710;2024-02-21T04:48:12;31.80;;;13.02;;
18501;SDS011;68437;52.236;5.710;2024-02-21T04:50:38;37.92;;;13.35;;
18501;SDS011;68437;52.236;5.710;2024-02-21T04:53:06;39.00;;;12.35;;
18501;SDS011;68437;52.236;5.710;2024-02-21T04:55:33;26.58;;;11.98;;
18501;SDS011;68437;52.236;5.710;2024-02-21T04:57:59;35.38;;;12.60;;
18501;SDS011;68437;52.236;5.710;2024-02-21T05:00:28;34.08;;;12.27;;
18501;SDS011;68437;52.236;5.710;2024-02-21T05:02:55;31.35;;;11.80;;
18501;SDS011;68437;52.236;5.710;2024-02-21T05:05:22;32.13;;;12.55;;
18501;SDS011;68437;52.236;5.710;2024-02-21T05:07:49;34.78;;;12.27;;
18501;SDS011;68437;52.236;5.710;2024-02-21T05:10:16;32.53;;;11.75;;
18501;SDS011;68437;52.236;5.710;2024-02-21T05:12:44;27.27;;;11.77;;
18501;SDS011;68437;52.236;5.710;2024-02-21T05:15:11;26.63;;;11.43;;
18501;SDS011;68437;52.236;5.710;2024-02-21T05:17:41;31.45;;;11.80;;
18501;SDS011;68437;52.236;5.710;2024-02-21T05:20:09;28.65;;;12.30;;
18501;SDS011;68437;52.236;5.710;2024-02-21T05:22:36;35.63;;;12.32;;
18501;SDS011;68437;52.236;5.710;2024-02-21T05:25:03;33.85;;;12.10;;
18501;SDS011;68437;52.236;5.710;2024-02-21T05:27:31;29.85;;;12.07;;
18501;SDS011;68437;52.236;5.710;2024-02-21T05:29:57;28.35;;;12.02;;
18501;SDS011;68437;52.236;5.710;2024-02-21T05:32:25;33.10;;;11.82;;
18501;SDS011;68437;52.236;5.710;2024-02-21T05:34:53;31.35;;;11.93;;
18501;SDS011;68437;52.236;5.710;2024-02-21T05:37:20;33.85;;;11.65;;
18501;SDS011;68437;52.236;5.710;2024-02-21T05:39:47;31.25;;;12.85;;
18501;SDS011;68437;52.236;5.710;2024-02-21T05:42:14;30.20;;;11.70;;
18501;SDS011;68437;52.236;5.710;2024-02-21T05:44:40;30.30;;;12.50;;
18501;SDS011;68437;52.236;5.710;2024-02-21T05:47:07;30.80;;;13.10;;
18501;SDS011;68437;52.236;5.710;2024-02-21T05:49:35;32.45;;;12.63;;
18501;SDS011;68437;52.236;5.710;2024-02-21T05:52:07;30.70;;;12.57;;
18501;SDS011;68437;52.236;5.710;2024-02-21T05:54:34;27.80;;;12.35;;
18501;SDS011;68437;52.236;5.710;2024-02-21T05:57:03;33.55;;;13.65;;
18501;SDS011;68437;52.236;5.710;2024-02-21T05:59:30;31.73;;;13.13;;
18501;SDS011;68437;52.236;5.710;2024-02-21T06:01:56;28.70;;;13.18;;
18501;SDS011;68437;52.236;5.710;2024-02-21T06:04:23;29.73;;;13.82;;
18501;SDS011;68437;52.236;5.710;2024-02-21T06:06:50;32.22;;;13.35;;
18501;SDS011;68437;52.236;5.710;2024-02-21T06:09:20;30.48;;;14.35;;
18501;SDS011;68437;52.236;5.710;2024-02-21T06:11:46;32.83;;;13.93;;
18501;SDS011;68437;52.236;5.710;2024-02-21T06:14:14;32.63;;;13.95;;
18501;SDS011;68437;52.236;5.710;2024-02-21T06:16:41;29.27;;;14.27;;
18501;SDS011;68437;52.236;5.710;2024-02-21T06:19:09;36.13;;;13.90;;
18501;SDS011;68437;52.236;5.710;2024-02-21T06:21:36;35.80;;;14.88;;
18501;SDS011;68437;52.236;5.710;2024-02-21T06:24:03;31.88;;;14.07;;
18501;SDS011;68437;52.236;5.710;2024-02-21T06:26:31;38.33;;;15.63;;
18501;SDS011;68437;52.236;5.710;2024-02-21T06:28:58;31.67;;;14.77;;
18501;SDS011;68437;52.236;5.710;2024-02-21T06:31:26;34.35;;;15.40;;
18501;SDS011;68437;52.236;5.710;2024-02-21T06:33:53;42.28;;;16.63;;
18501;SDS011;68437;52.236;5.710;2024-02-21T06:36:20;38.00;;;15.85;;
18501;SDS011;68437;52.236;5.710;2024-02-21T06:38:47;34.63;;;15.80;;
18501;SDS011;68437;52.236;5.710;2024-02-21T06:41:15;37.92;;;16.77;;
18501;SDS011;68437;52.236;5.710;2024-02-21T06:43:44;42.05;;;16.50;;
18501;SDS011;68437;52.236;5.710;2024-02-21T06:46:11;42.05;;;17.17;;
18501;SDS011;68437;52.236;5.710;2024-02-21T06:48:38;40.97;;;17.73;;
18501;SDS011;68437;52.236;5.710;2024-02-21T06:51:05;43.83;;;19.38;;
18501;SDS011;68437;52.236;5.710;2024-02-21T06:53:32;42.58;;;18.65;;
18501;SDS011;68437;52.236;5.710;2024-02-21T06:55:58;43.40;;;19.15;;
18501;SDS011;68437;52.236;5.710;2024-02-21T06:58:25;47.58;;;19.15;;
18501;SDS011;68437;52.236;5.710;2024-02-21T07:00:53;47.53;;;20.25;;
18501;SDS011;68437;52.236;5.710;2024-02-21T07:03:20;52.10;;;20.85;;
18501;SDS011;68437;52.236;5.710;2024-02-21T07:05:49;48.83;;;21.42;;
18501;SDS011;68437;52.236;5.710;2024-02-21T07:08:16;52.90;;;22.42;;
18501;SDS011;68437;52.236;5.710;2024-02-21T07:10:42;51.25;;;22.50;;
18501;SDS011;68437;52.236;5.710;2024-02-21T07:13:09;48.63;;;21.85;;
18501;SDS011;68437;52.236;5.710;2024-02-21T07:15:36;54.50;;;22.77;;
18501;SDS011;68437;52.236;5.710;2024-02-21T07:18:04;56.83;;;23.27;;
18501;SDS011;68437;52.236;5.710;2024-02-21T07:20:31;58.67;;;23.67;;
18501;SDS011;68437;52.236;5.710;2024-02-21T07:23:01;57.00;;;23.40;;
18501;SDS011;68437;52.236;5.710;2024-02-21T07:25:28;47.50;;;22.13;;
18501;SDS011;68437;52.236;5.710;2024-02-21T07:27:55;59.53;;;22.48;;
18501;SDS011;68437;52.236;5.710;2024-02-21T07:30:22;57.95;;;22.35;;
18501;SDS011;68437;52.236;5.710;2024-02-21T07:32:49;54.90;;;21.23;;
18501;SDS011;68437;52.236;5.710;2024-02-21T07:35:19;54.95;;;21.73;;
18501;SDS011;68437;52.236;5.710;2024-02-21T07:37:46;54.42;;;21.52;;
18501;SDS011;68437;52.236;5.710;2024-02-21T07:40:14;48.28;;;20.27;;
18501;SDS011;68437;52.236;5.710;2024-02-21T07:42:45;51.95;;;20.88;;
18501;SDS011;68437;52.236;5.710;2024-02-21T07:45:11;50.60;;;20.25;;
18501;SDS011;68437;52.236;5.710;2024-02-21T07:47:38;49.67;;;19.67;;
18501;SDS011;68437;52.236;5.710;2024-02-21T07:50:05;43.58;;;19.17;;
18501;SDS011;68437;52.236;5.710;2024-02-21T07:52:35;51.90;;;18.92;;
18501;SDS011;68437;52.236;5.710;2024-02-21T07:55:01;46.70;;;19.05;;
18501;SDS011;68437;52.236;5.710;2024-02-21T07:57:28;43.38;;;19.08;;
18501;SDS011;68437;52.236;5.710;2024-02-21T07:59:55;39.80;;;18.60;;
18501;SDS011;68437;52.236;5.710;2024-02-21T08:02:22;42.80;;;18.17;;
18501;SDS011;68437;52.236;5.710;2024-02-21T08:04:54;42.08;;;17.20;;
18501;SDS011;68437;52.236;5.710;2024-02-21T08:07:25;51.10;;;18.33;;
18501;SDS011;68437;52.236;5.710;2024-02-21T08:09:57;50.35;;;17.92;;
18501;SDS011;68437;52.236;5.710;2024-02-21T08:12:24;37.00;;;16.60;;
18501;SDS011;68437;52.236;5.710;2024-02-21T08:14:50;38.70;;;16.08;;
18501;SDS011;68437;52.236;5.710;2024-02-21T08:17:17;37.55;;;15.35;;
18501;SDS011;68437;52.236;5.710;2024-02-21T08:19:44;36.20;;;14.95;;
18501;SDS011;68437;52.236;5.710;2024-02-21T08:22:11;37.63;;;14.80;;
18501;SDS011;68437;52.236;5.710;2024-02-21T08:24:37;31.50;;;14.68;;
18501;SDS011;68437;52.236;5.710;2024-02-21T08:27:06;34.15;;;14.20;;
18501;SDS011;68437;52.236;5.710;2024-02-21T08:29:33;34.15;;;14.13;;
18501;SDS011;68437;52.236;5.710;2024-02-21T08:32:02;33.08;;;13.88;;
18501;SDS011;68437;52.236;5.710;2024-02-21T08:34:28;39.22;;;14.23;;
18501;SDS011;68437;52.236;5.710;2024-02-21T08:36:59;35.42;;;14.52;;
18501;SDS011;68437;52.236;5.710;2024-02-21T08:39:27;34.03;;;14.20;;
18501;SDS011;68437;52.236;5.710;2024-02-21T08:41:55;33.75;;;14.57;;
18501;SDS011;68437;52.236;5.710;2024-02-21T08:44:25;39.95;;;14.40;;
18501;SDS011;68437;52.236;5.710;2024-02-21T08:46:54;33.47;;;13.82;;
18501;SDS011;68437;52.236;5.710;2024-02-21T08:49:23;36.78;;;13.73;;
18501;SDS011;68437;52.236;5.710;2024-02-21T08:51:52;35.88;;;14.05;;
18501;SDS011;68437;52.236;5.710;2024-02-21T08:54:19;35.30;;;14.27;;
18501;SDS011;68437;52.236;5.710;2024-02-21T08:56:46;32.00;;;13.90;;
18501;SDS011;68437;52.236;5.710;2024-02-21T08:59:13;35.75;;;14.77;;
18501;SDS011;68437;52.236;5.710;2024-02-21T09:01:41;31.20;;;13.07;;
18501;SDS011;68437;52.236;5.710;2024-02-21T09:04:08;34.55;;;13.85;;
18501;SDS011;68437;52.236;5.710;2024-02-21T09:06:35;38.33;;;16.02;;
18501;SDS011;68437;52.236;5.710;2024-02-21T09:09:04;36.92;;;15.27;;
18501;SDS011;68437;52.236;5.710;2024-02-21T09:11:33;33.13;;;14.65;;
18501;SDS011;68437;52.236;5.710;2024-02-21T09:14:00;30.48;;;14.75;;
18501;SDS011;68437;52.236;5.710;2024-02-21T09:16:31;36.45;;;14.68;;
18501;SDS011;68437;52.236;5.710;2024-02-21T09:18:59;34.33;;;15.25;;
18501;SDS011;68437;52.236;5.710;2024-02-21T09:21:29;31.60;;;14.10;;
18501;SDS011;68437;52.236;5.710;2024-02-21T09:23:56;36.38;;;15.05;;
18501;SDS011;68437;52.236;5.710;2024-02-21T09:26:22;32.28;;;13.82;;
18501;SDS011;68437;52.236;5.710;2024-02-21T09:28:49;36.30;;;14.90;;
18501;SDS011;68437;52.236;5.710;2024-02-21T09:31:16;35.67;;;14.05;;
18501;SDS011;68437;52.236;5.710;2024-02-21T09:33:43;29.80;;;14.48;;
18501;SDS011;68437;52.236;5.710;2024-02-21T09:36:11;30.17;;;13.82;;
18501;SDS011;68437;52.236;5.710;2024-02-21T09:38:39;31.73;;;14.43;;
18501;SDS011;68437;52.236;5.710;2024-02-21T09:41:08;31.60;;;14.10;;
18501;SDS011;68437;52.236;5.710;2024-02-21T09:43:41;32.00;;;14.00;;
18501;SDS011;68437;52.236;5.710;2024-02-21T09:46:11;31.27;;;14.75;;
18501;SDS011;68437;52.236;5.710;2024-02-21T09:48:45;34.97;;;15.65;;
18501;SDS011;68437;52.236;5.710;2024-02-21T09:51:26;34.15;;;13.30;;
18501;SDS011;68437;52.236;5.710;2024-02-21T09:53:57;30.08;;;13.90;;
18501;SDS011;68437;52.236;5.710;2024-02-21T09:56:24;29.15;;;13.10;;
18501;SDS011;68437;52.236;5.710;2024-02-21T09:58:51;28.92;;;12.60;;
18501;SDS011;68437;52.236;5.710;2024-02-21T10:01:18;26.25;;;12.18;;
18501;SDS011;68437;52.236;5.710;2024-02-21T10:03:44;27.50;;;12.25;;
18501;SDS011;68437;52.236;5.710;2024-02-21T10:06:11;27.58;;;11.45;;
18501;SDS011;68437;52.236;5.710;2024-02-21T10:08:39;29.45;;;12.15;;
18501;SDS011;68437;52.236;5.710;2024-02-21T10:11:06;26.33;;;11.55;;
18501;SDS011;68437;52.236;5.710;2024-02-21T10:13:34;27.73;;;11.35;;
18501;SDS011;68437;52.236;5.710;2024-02-21T10:16:03;26.48;;;11.15;;
18501;SDS011;68437;52.236;5.710;2024-02-21T10:18:31;26.35;;;10.60;;
18501;SDS011;68437;52.236;5.710;2024-02-21T10:21:04;25.23;;;10.88;;
18501;SDS011;68437;52.236;5.710;2024-02-21T10:23:46;19.50;;;10.05;;
18501;SDS011;68437;52.236;5.710;2024-02-21T10:26:14;22.85;;;10.45;;
18501;SDS011;68437;52.236;5.710;2024-02-21T10:28:41;22.25;;;9.93;;
18501;SDS011;68437;52.236;5.710;2024-02-21T10:31:10;23.00;;;10.20;;
18501;SDS011;68437;52.236;5.710;2024-02-21T10:33:37;20.30;;;9.90;;
18501;SDS011;68437;52.236;5.710;2024-02-21T10:36:07;32.40;;;11.73;;
18501;SDS011;68437;52.236;5.710;2024-02-21T10:38:36;18.77;;;9.52;;
18501;SDS011;68437;52.236;5.710;2024-02-21T10:41:05;21.50;;;9.73;;
18501;SDS011;68437;52.236;5.710;2024-02-21T10:43:33;21.35;;;9.82;;
18501;SDS011;68437;52.236;5.710;2024-02-21T10:46:05;18.20;;;9.63;;
18501;SDS011;68437;52.236;5.710;2024-02-21T10:48:36;22.92;;;9.77;;
18501;SDS011;68437;52.236;5.710;2024-02-21T10:51:11;18.35;;;9.38;;
18501;SDS011;68437;52.236;5.710;2024-02-21T10:53:44;20.95;;;8.63;;
18501;SDS011;68437;52.236;5.710;2024-02-21T10:56:20;19.58;;;9.32;;
18501;SDS011;68437;52.236;5.710;2024-02-21T10:58:49;16.95;;;8.98;;
18501;SDS011;68437;52.236;5.710;2024-02-21T11:01:17;19.55;;;9.55;;
18501;SDS011;68437;52.236;5.710;2024-02-21T11:03:45;17.10;;;8.60;;
18501;SDS011;68437;52.236;5.710;2024-02-21T11:06:14;17.70;;;9.40;;
18501;SDS011;68437;52.236;5.710;2024-02-21T11:08:43;15.52;;;8.07;;
18501;SDS011;68437;52.236;5.710;2024-02-21T11:11:12;18.65;;;8.57;;
18501;SDS011;68437;52.236;5.710;2024-02-21T11:13:43;15.40;;;7.85;;
18501;SDS011;68437;52.236;5.710;2024-02-21T11:16:11;22.33;;;8.38;;
18501;SDS011;68437;52.236;5.710;2024-02-21T11:18:47;16.83;;;8.82;;
18501;SDS011;68437;52.236;5.710;2024-02-21T11:21:14;13.82;;;8.27;;
18501;SDS011;68437;52.236;5.710;2024-02-21T11:23:41;16.35;;;8.70;;
18501;SDS011;68437;52.236;5.710;2024-02-21T11:26:08;16.02;;;8.52;;
18501;SDS011;68437;52.236;5.710;2024-02-21T11:28:36;19.90;;;10.88;;
18501;SDS011;68437;52.236;5.710;2024-02-21T11:31:10;17.38;;;9.60;;
18501;SDS011;68437;52.236;5.710;2024-02-21T11:33:39;17.10;;;9.18;;
18501;SDS011;68437;52.236;5.710;2024-02-21T11:36:07;19.55;;;10.50;;
18501;SDS011;68437;52.236;5.710;2024-02-21T11:38:34;21.02;;;12.05;;
18501;SDS011;68437;52.236;5.710;2024-02-21T11:41:01;32.85;;;20.27;;
18501;SDS011;68437;52.236;5.710;2024-02-21T11:43:28;31.15;;;17.70;;
18501;SDS011;68437;52.236;5.710;2024-02-21T11:45:58;24.45;;;13.82;;
18501;SDS011;68437;52.236;5.710;2024-02-21T11:48:32;22.75;;;13.30;;
18501;SDS011;68437;52.236;5.710;2024-02-21T11:50:59;25.83;;;13.07;;
18501;SDS011;68437;52.236;5.710;2024-02-21T11:53:29;27.88;;;13.02;;
18501;SDS011;68437;52.236;5.710;2024-02-21T11:55:58;25.52;;;12.20;;
18501;SDS011;68437;52.236;5.710;2024-02-21T11:58:25;20.15;;;11.77;;
18501;SDS011;68437;52.236;5.710;2024-02-21T12:00:52;22.73;;;11.93;;
18501;SDS011;68437;52.236;5.710;2024-02-21T12:03:19;20.45;;;11.90;;
18501;SDS011;68437;52.236;5.710;2024-02-21T12:05:47;23.58;;;12.68;;
18501;SDS011;68437;52.236;5.710;2024-02-21T12:08:14;22.00;;;11.93;;
18501;SDS011;68437;52.236;5.710;2024-02-21T12:10:44;23.48;;;12.40;;
18501;SDS011;68437;52.236;5.710;2024-02-21T12:13:16;24.75;;;12.40;;
18501;SDS011;68437;52.236;5.710;2024-02-21T12:15:47;28.27;;;15.25;;
18501;SDS011;68437;52.236;5.710;2024-02-21T12:18:14;23.15;;;12.55;;
18501;SDS011;68437;52.236;5.710;2024-02-21T12:20:41;31.52;;;14.30;;
18501;SDS011;68437;52.236;5.710;2024-02-21T12:23:10;24.15;;;12.13;;
18501;SDS011;68437;52.236;5.710;2024-02-21T12:25:38;21.80;;;12.52;;
18501;SDS011;68437;52.236;5.710;2024-02-21T12:28:05;24.48;;;12.32;;
18501;SDS011;68437;52.236;5.710;2024-02-21T12:30:32;25.15;;;12.63;;
18501;SDS011;68437;52.236;5.710;2024-02-21T12:33:00;22.50;;;11.35;;
18501;SDS011;68437;52.236;5.710;2024-02-21T12:35:27;22.67;;;11.57;;
18501;SDS011;68437;52.236;5.710;2024-02-21T12:37:56;21.08;;;11.32;;
18501;SDS011;68437;52.236;5.710;2024-02-21T12:40:24;22.05;;;10.50;;
18501;SDS011;68437;52.236;5.710;2024-02-21T12:42:57;23.00;;;10.90;;
18501;SDS011;68437;52.236;5.710;2024-02-21T12:45:24;16.70;;;9.73;;
18501;SDS011;68437;52.236;5.710;2024-02-21T12:47:51;23.63;;;10.68;;
18501;SDS011;68437;52.236;5.710;2024-02-21T12:50:18;19.98;;;9.75;;
18501;SDS011;68437;52.236;5.710;2024-02-21T12:52:45;19.73;;;9.27;;
18501;SDS011;68437;52.236;5.710;2024-02-21T12:55:12;22.52;;;10.07;;
18501;SDS011;68437;52.236;5.710;2024-02-21T12:57:40;22.17;;;10.75;;
18501;SDS011;68437;52.236;5.710;2024-02-21T13:00:07;19.60;;;9.35;;
18501;SDS011;68437;52.236;5.710;2024-02-21T13:02:36;18.65;;;8.80;;
18501;SDS011;68437;52.236;5.710;2024-02-21T13:05:03;18.17;;;8.75;;
18501;SDS011;68437;52.236;5.710;2024-02-21T13:07:30;23.83;;;9.05;;
18501;SDS011;68437;52.236;5.710;2024-02-21T13:09:57;17.85;;;8.75;;
18501;SDS011;68437;52.236;5.710;2024-02-21T13:12:24;18.63;;;8.50;;
18501;SDS011;68437;52.236;5.710;2024-02-21T13:14:54;18.25;;;8.10;;
18501;SDS011;68437;52.236;5.710;2024-02-21T13:17:20;14.60;;;7.68;;
18501;SDS011;68437;52.236;5.710;2024-02-21T13:19:48;22.05;;;8.48;;
18501;SDS011;68437;52.236;5.710;2024-02-21T13:22:14;17.52;;;8.65;;
18501;SDS011;68437;52.236;5.710;2024-02-21T13:24:41;19.35;;;8.50;;
18501;SDS011;68437;52.236;5.710;2024-02-21T13:27:08;18.20;;;8.65;;
18501;SDS011;68437;52.236;5.710;2024-02-21T13:29:35;17.65;;;8.07;;
18501;SDS011;68437;52.236;5.710;2024-02-21T13:32:03;24.80;;;8.25;;
18501;SDS011;68437;52.236;5.710;2024-02-21T13:34:31;18.17;;;8.25;;
18501;SDS011;68437;52.236;5.710;2024-02-21T13:36:57;16.92;;;8.52;;
18501;SDS011;68437;52.236;5.710;2024-02-21T13:39:25;17.60;;;8.20;;
18501;SDS011;68437;52.236;5.710;2024-02-21T13:41:52;20.15;;;8.23;;
18501;SDS011;68437;52.236;5.710;2024-02-21T13:44:19;17.20;;;8.25;;
18501;SDS011;68437;52.236;5.710;2024-02-21T13:46:46;17.65;;;8.00;;
18501;SDS011;68437;52.236;5.710;2024-02-21T13:49:15;18.80;;;8.48;;
18501;SDS011;68437;52.236;5.710;2024-02-21T13:51:42;25.50;;;8.90;;
18501;SDS011;68437;52.236;5.710;2024-02-21T13:54:10;21.17;;;8.32;;
18501;SDS011;68437;52.236;5.710;2024-02-21T13:56:39;18.77;;;9.30;;
18501;SDS011;68437;52.236;5.710;2024-02-21T13:59:06;20.92;;;8.75;;
18501;SDS011;68437;52.236;5.710;2024-02-21T14:01:33;19.77;;;8.98;;
18501;SDS011;68437;52.236;5.710;2024-02-21T14:04:00;16.08;;;8.38;;
18501;SDS011;68437;52.236;5.710;2024-02-21T14:06:30;14.68;;;8.77;;
18501;SDS011;68437;52.236;5.710;2024-02-21T14:08:57;19.83;;;8.65;;
18501;SDS011;68437;52.236;5.710;2024-02-21T14:11:24;21.83;;;8.82;;
18501;SDS011;68437;52.236;5.710;2024-02-21T14:13:51;18.67;;;9.07;;
18501;SDS011;68437;52.236;5.710;2024-02-21T14:16:22;23.15;;;9.45;;
18501;SDS011;68437;52.236;5.710;2024-02-21T14:18:49;16.92;;;9.20;;
18501;SDS011;68437;52.236;5.710;2024-02-21T14:21:15;18.15;;;9.50;;
18501;SDS011;68437;52.236;5.710;2024-02-21T14:23:44;19.23;;;8.95;;
18501;SDS011;68437;52.236;5.710;2024-02-21T14:26:11;19.05;;;9.15;;
18501;SDS011;68437;52.236;5.710;2024-02-21T14:28:39;19.38;;;8.95;;